Time;durP1;ratioP1;P1;durP2;ratioP2;P2;SDS_P1;SDS_P2;PMS_P1;PMS_P2;Temp;Humidity;BMP_temperature;BMP_pressure;BME280_temperature;BME280_humidity;BME280_pressure;Samples;Min_cycle;Max_cycle;Signal;HPM_P1;HPM_P2
2024/03/17 00:01:59;;;;;;;0.03;0.03;;;20.70;47.40;;;;;;5013259;28;20228;-63
2024/03/17 00:04:28;;;;;;;0.00;0.00;;;20.80;47.40;;;;;;5013475;28;20712;-58
2024/03/17 00:06:59;;;;;;;0.00;0.00;;;20.80;47.30;;;;;;5012847;28;20220;-54
2024/03/17 00:09:30;;;;;;;0.00;0.00;;;20.80;47.30;;;;;;5007491;28;20243;-55
2024/03/17 00:12:00;;;;;;;0.10;0.10;;;20.90;47.40;;;;;;5012671;28;20506;-53
2024/03/17 00:14:29;;;;;;;0.00;0.00;;;20.90;47.30;;;;;;5013219;28;20196;-54
2024/03/17 00:17:00;;;;;;;0.00;0.00;;;20.90;47.20;;;;;;5012715;28;20200;-52
2024/03/17 00:19:29;;;;;;;0.10;0.10;;;20.90;47.20;;;;;;5012775;28;20200;-57
2024/03/17 00:22:00;;;;;;;0.00;0.00;;;20.90;47.10;;;;;;5012762;28;20232;-64
2024/03/17 00:24:34;;;;;;;0.08;0.08;;;21.00;47.20;;;;;;5012776;28;20208;-61
2024/03/17 00:27:05;;;;;;;0.10;0.10;;;21.00;47.20;;;;;;5013245;28;20211;-51
2024/03/17 00:29:34;;;;;;;0.08;0.08;;;21.00;47.10;;;;;;5012826;28;20197;-49
2024/03/17 00:32:06;;;;;;;0.05;0.05;;;21.10;47.10;;;;;;5012690;28;20216;-61
2024/03/17 00:34:35;;;;;;;0.00;0.00;;;21.00;47.00;;;;;;5012616;28;20197;-56
2024/03/17 00:37:05;;;;;;;0.10;0.10;;;21.10;47.10;;;;;;5012553;28;20204;-55
2024/03/17 00:39:37;;;;;;;0.00;0.00;;;21.10;47.00;;;;;;5012811;28;20211;-45
2024/03/17 00:42:07;;;;;;;0.00;0.00;;;21.10;47.00;;;;;;5012164;28;20224;-49
2024/03/17 00:44:36;;;;;;;0.10;0.10;;;21.10;47.00;;;;;;5012584;28;20197;-56
2024/03/17 00:47:08;;;;;;;0.10;0.10;;;21.10;46.90;;;;;;5012672;28;20197;-57
2024/03/17 00:49:37;;;;;;;0.00;0.00;;;21.10;46.80;;;;;;5012798;28;20280;-56
2024/03/17 00:52:08;;;;;;;0.00;0.00;;;21.20;46.90;;;;;;5012649;28;20243;-48
2024/03/17 00:54:39;;;;;;;0.10;0.10;;;21.20;46.80;;;;;;5012096;28;20205;-61
2024/03/17 00:57:09;;;;;;;0.05;0.05;;;21.20;46.70;;;;;;5012341;28;20233;-61
2024/03/17 00:59:38;;;;;;;0.00;0.00;;;21.20;46.70;;;;;;5012070;28;20197;-47
2024/03/17 01:02:09;;;;;;;0.00;0.00;;;21.20;46.60;;;;;;5011814;28;20228;-63
2024/03/17 01:04:39;;;;;;;0.00;0.00;;;21.20;46.70;;;;;;5012377;28;20201;-55
2024/03/17 01:07:09;;;;;;;0.00;0.00;;;21.20;46.60;;;;;;5011572;28;20580;-43
2024/03/17 01:09:40;;;;;;;0.10;0.10;;;21.30;46.60;;;;;;5012199;28;20197;-43
2024/03/17 01:12:11;;;;;;;0.00;0.00;;;21.30;46.60;;;;;;5012088;28;20207;-42
2024/03/17 01:14:40;;;;;;;0.00;0.00;;;21.30;46.50;;;;;;5011483;28;20246;-45
2024/03/17 01:17:11;;;;;;;0.10;0.10;;;21.30;46.50;;;;;;5011195;28;20208;-42
2024/03/17 01:19:40;;;;;;;0.00;0.00;;;21.30;46.50;;;;;;5008564;28;20208;-43
2024/03/17 01:22:11;;;;;;;0.10;0.10;;;21.30;46.40;;;;;;5011677;28;20228;-42
2024/03/17 01:24:45;;;;;;;0.10;0.10;;;21.30;46.50;;;;;;5011058;28;20200;-44
2024/03/17 01:27:16;;;;;;;0.10;0.10;;;21.30;46.50;;;;;;5010868;28;20287;-44
2024/03/17 01:29:45;;;;;;;0.10;0.10;;;21.40;46.50;;;;;;5011443;28;20282;-46
2024/03/17 01:32:16;;;;;;;0.10;0.10;;;21.40;46.50;;;;;;5011529;28;20201;-48
2024/03/17 01:34:46;;;;;;;0.10;0.10;;;21.40;46.50;;;;;;5011851;28;20197;-43
2024/03/17 01:37:16;;;;;;;0.00;0.00;;;21.40;46.50;;;;;;5011225;23;20221;-46
2024/03/17 01:39:49;;;;;;;0.10;0.10;;;21.40;46.50;;;;;;4992400;28;20201;-52
2024/03/17 01:42:20;;;;;;;0.10;0.10;;;21.40;46.40;;;;;;4991900;28;20237;-54
2024/03/17 01:44:50;;;;;;;0.00;0.00;;;21.50;46.40;;;;;;4992216;28;20201;-55
2024/03/17 01:47:21;;;;;;;0.00;0.00;;;21.50;46.40;;;;;;4992113;28;20204;-48
2024/03/17 01:49:52;;;;;;;0.00;0.00;;;21.50;46.40;;;;;;4991506;28;20212;-54
2024/03/17 01:52:25;;;;;;;0.08;0.08;;;21.50;46.30;;;;;;4990983;28;20237;-51
2024/03/17 01:54:57;;;;;;;0.00;0.00;;;21.50;46.30;;;;;;4991193;28;20209;-51
2024/03/17 01:57:27;;;;;;;0.00;0.00;;;21.50;46.30;;;;;;4991602;28;20198;-52
2024/03/17 01:59:57;;;;;;;0.00;0.00;;;21.50;46.30;;;;;;4992103;28;20661;-49
2024/03/17 02:02:27;;;;;;;0.00;0.00;;;21.50;46.30;;;;;;4991791;28;20233;-48
2024/03/17 02:04:57;;;;;;;0.10;0.10;;;21.50;46.20;;;;;;4991172;28;20216;-55
2024/03/17 02:07:27;;;;;;;0.00;0.00;;;21.50;46.20;;;;;;4992232;28;20284;-48
2024/03/17 02:09:58;;;;;;;0.00;0.00;;;21.50;46.20;;;;;;4992247;28;20224;-57
2024/03/17 02:12:30;;;;;;;0.00;0.00;;;21.50;46.20;;;;;;4991556;28;20568;-50
2024/03/17 02:14:59;;;;;;;0.00;0.00;;;21.60;46.10;;;;;;4991501;28;20217;-52
2024/03/17 02:17:30;;;;;;;0.00;0.00;;;21.60;46.10;;;;;;4991179;28;20202;-47
2024/03/17 02:20:00;;;;;;;0.00;0.00;;;21.60;46.10;;;;;;4992230;28;20715;-54
2024/03/17 02:22:32;;;;;;;0.00;0.00;;;21.60;46.10;;;;;;4991776;28;20229;-49
2024/03/17 02:25:02;;;;;;;0.00;0.00;;;21.60;46.10;;;;;;4991296;28;20248;-49
2024/03/17 02:27:32;;;;;;;0.00;0.00;;;21.60;46.00;;;;;;4991228;28;20260;-52
2024/03/17 02:30:01;;;;;;;0.05;0.05;;;21.60;46.00;;;;;;4991449;28;20224;-52
2024/03/17 02:32:33;;;;;;;0.10;0.10;;;21.60;46.00;;;;;;4991249;28;20697;-48
2024/03/17 02:35:05;;;;;;;0.00;0.00;;;21.60;45.90;;;;;;4991744;28;20658;-53
2024/03/17 02:37:37;;;;;;;0.03;0.03;;;21.70;45.90;;;;;;4991969;28;20206;-52
2024/03/17 02:40:08;;;;;;;0.10;0.10;;;21.70;45.90;;;;;;4991439;28;20516;-46
2024/03/17 02:42:40;;;;;;;0.10;0.10;;;21.70;45.80;;;;;;4991629;28;20226;-53
2024/03/17 02:45:11;;;;;;;0.00;0.00;;;21.70;45.80;;;;;;4991835;28;20281;-49
2024/03/17 02:47:42;;;;;;;0.00;0.00;;;21.70;45.70;;;;;;4991795;28;20193;-55
2024/03/17 02:50:13;;;;;;;0.08;0.08;;;21.70;45.60;;;;;;4991759;28;20205;-53
2024/03/17 02:52:46;;;;;;;0.00;0.00;;;21.70;45.60;;;;;;4991027;28;20221;-52
2024/03/17 02:55:17;;;;;;;0.00;0.00;;;21.70;45.50;;;;;;4991629;28;20205;-48
2024/03/17 02:57:48;;;;;;;0.00;0.00;;;21.70;45.50;;;;;;4990947;28;20198;-50
2024/03/17 03:00:19;;;;;;;0.00;0.00;;;21.70;45.40;;;;;;4991515;28;20193;-56
2024/03/17 03:02:50;;;;;;;0.00;0.00;;;21.70;45.40;;;;;;4990836;28;20323;-53
2024/03/17 03:05:21;;;;;;;0.00;0.00;;;21.70;45.40;;;;;;4993625;28;20216;-54
2024/03/17 03:07:54;;;;;;;0.08;0.08;;;21.70;45.30;;;;;;4995003;28;20256;-53
2024/03/17 03:10:24;;;;;;;0.00;0.00;;;21.70;45.30;;;;;;4994803;28;20225;-54
2024/03/17 03:12:55;;;;;;;0.00;0.00;;;21.70;45.30;;;;;;4994130;28;20212;-55
2024/03/17 03:15:25;;;;;;;0.00;0.00;;;21.70;45.30;;;;;;4994242;28;20676;-52
2024/03/17 03:17:56;;;;;;;0.03;0.03;;;21.70;45.30;;;;;;4994153;28;20197;-50
2024/03/17 03:20:28;;;;;;;0.00;0.00;;;21.70;45.30;;;;;;4990268;28;20197;-51
2024/03/17 03:23:00;;;;;;;0.00;0.00;;;21.70;45.30;;;;;;4985187;28;20229;-50
2024/03/17 03:25:32;;;;;;;0.00;0.00;;;21.70;45.20;;;;;;4984097;28;20212;-53
2024/03/17 03:28:02;;;;;;;0.00;0.00;;;21.70;45.20;;;;;;4988745;28;20213;-52
2024/03/17 03:30:33;;;;;;;0.03;0.03;;;21.70;45.20;;;;;;4989577;28;20205;-53
2024/03/17 03:33:05;;;;;;;0.10;0.10;;;21.70;45.20;;;;;;4970437;28;20218;-50
2024/03/17 03:35:35;;;;;;;0.00;0.00;;;21.70;45.20;;;;;;4981065;28;20201;-54
2024/03/17 03:38:08;;;;;;;0.00;0.00;;;21.70;45.20;;;;;;4989074;28;20217;-53
2024/03/17 03:40:39;;;;;;;0.00;0.00;;;21.70;45.30;;;;;;4989445;28;20615;-52
2024/03/17 03:43:09;;;;;;;0.10;0.10;;;21.70;45.20;;;;;;4988661;28;20284;-53
2024/03/17 03:45:41;;;;;;;0.00;0.00;;;21.70;45.20;;;;;;4989155;28;20204;-57
2024/03/17 03:48:12;;;;;;;0.00;0.00;;;21.70;45.20;;;;;;4988965;28;20201;-53
2024/03/17 03:50:43;;;;;;;0.00;0.00;;;21.70;45.20;;;;;;4988705;28;20227;-58
2024/03/17 03:53:16;;;;;;;0.00;0.00;;;21.70;45.10;;;;;;4988655;28;20705;-51
2024/03/17 03:55:46;;;;;;;0.00;0.00;;;21.70;45.10;;;;;;4987729;28;20202;-53
2024/03/17 03:58:17;;;;;;;0.00;0.00;;;21.70;45.10;;;;;;4988624;28;20542;-53
2024/03/17 04:00:48;;;;;;;0.10;0.10;;;21.70;45.10;;;;;;4988354;28;20286;-52
2024/03/17 04:03:18;;;;;;;0.03;0.03;;;21.70;45.10;;;;;;4988467;28;20347;-51
2024/03/17 04:05:49;;;;;;;0.10;0.10;;;21.60;45.00;;;;;;4988754;28;20205;-49
2024/03/17 04:08:24;;;;;;;0.00;0.00;;;21.70;45.10;;;;;;4989414;28;20221;-51
2024/03/17 04:10:54;;;;;;;0.00;0.00;;;21.70;45.10;;;;;;4988268;28;20189;-51
2024/03/17 04:13:25;;;;;;;0.00;0.00;;;21.70;45.00;;;;;;4985412;28;20225;-56
2024/03/17 04:15:56;;;;;;;0.10;0.10;;;21.70;45.00;;;;;;4987960;28;20197;-55
2024/03/17 04:18:30;;;;;;;0.05;0.05;;;21.70;45.00;;;;;;4988693;28;20292;-53
2024/03/17 04:21:03;;;;;;;0.10;0.10;;;21.70;44.90;;;;;;4989629;28;20201;-52
2024/03/17 04:23:36;;;;;;;0.10;0.10;;;21.70;44.90;;;;;;4988076;28;20921;-54
2024/03/17 04:26:09;;;;;;;0.03;0.03;;;21.70;45.00;;;;;;4987737;28;20736;-53
2024/03/17 04:28:40;;;;;;;0.00;0.00;;;21.70;45.10;;;;;;5007293;28;20721;-50
2024/03/17 04:31:11;;;;;;;0.00;0.00;;;21.70;45.10;;;;;;5007411;28;20201;-48
2024/03/17 04:33:42;;;;;;;0.10;0.10;;;21.70;45.00;;;;;;5007364;28;20306;-50
2024/03/17 04:36:13;;;;;;;0.00;0.00;;;21.70;45.00;;;;;;5008519;28;20664;-54
2024/03/17 04:38:45;;;;;;;0.10;0.10;;;21.70;45.00;;;;;;4965582;28;801675;-53
2024/03/17 04:41:19;;;;;;;0.08;0.08;;;21.70;45.00;;;;;;4988619;28;20252;-56
2024/03/17 04:43:49;;;;;;;0.10;0.10;;;21.70;44.90;;;;;;4989683;28;20232;-52
2024/03/17 04:46:20;;;;;;;0.10;0.10;;;21.70;44.90;;;;;;4988614;28;20197;-50
2024/03/17 04:48:51;;;;;;;0.00;0.00;;;21.70;44.80;;;;;;4988187;28;20202;-54
2024/03/17 04:51:22;;;;;;;0.10;0.10;;;21.70;44.70;;;;;;4988358;28;20229;-51
2024/03/17 04:53:54;;;;;;;0.10;0.10;;;21.60;44.60;;;;;;4987795;28;20221;-51
2024/03/17 04:56:25;;;;;;;0.10;0.10;;;21.70;44.60;;;;;;4988202;28;20204;-50
2024/03/17 04:58:55;;;;;;;0.00;0.00;;;21.60;44.50;;;;;;4988097;28;20208;-55
2024/03/17 05:01:26;;;;;;;0.00;0.00;;;21.60;44.50;;;;;;4988466;28;20205;-50
2024/03/17 05:03:57;;;;;;;0.00;0.00;;;21.60;44.50;;;;;;4988337;28;20261;-49
2024/03/17 05:06:27;;;;;;;0.08;0.08;;;21.60;44.40;;;;;;4988696;28;20578;-57
2024/03/17 05:09:00;;;;;;;0.00;0.00;;;21.60;44.40;;;;;;4988738;28;20201;-46
2024/03/17 05:11:30;;;;;;;0.00;0.00;;;21.60;44.30;;;;;;4988747;28;20242;-48
2024/03/17 05:14:01;;;;;;;0.00;0.00;;;21.60;44.40;;;;;;4988179;28;20300;-47
2024/03/17 05:16:32;;;;;;;0.00;0.00;;;21.60;44.40;;;;;;4988061;28;20189;-53
2024/03/17 05:19:03;;;;;;;0.00;0.00;;;21.60;44.40;;;;;;4988744;28;20229;-55
2024/03/17 05:21:34;;;;;;;0.00;0.00;;;21.50;44.40;;;;;;4988013;28;20201;-53
2024/03/17 05:24:07;;;;;;;0.00;0.00;;;21.50;44.40;;;;;;4988076;28;20233;-51
2024/03/17 05:26:38;;;;;;;0.10;0.10;;;21.50;44.50;;;;;;4988276;28;20216;-53
2024/03/17 05:29:09;;;;;;;0.00;0.00;;;21.60;44.60;;;;;;4989439;28;20704;-54
2024/03/17 05:31:39;;;;;;;0.00;0.00;;;21.50;44.50;;;;;;4987631;28;20273;-56
2024/03/17 05:34:10;;;;;;;0.00;0.00;;;21.50;44.60;;;;;;4988214;28;20235;-49
2024/03/17 05:36:41;;;;;;;0.10;0.10;;;21.50;44.70;;;;;;4989454;28;20213;-48
2024/03/17 05:39:13;;;;;;;0.05;0.05;;;21.50;44.80;;;;;;4988107;28;20210;-51
2024/03/17 05:41:44;;;;;;;0.10;0.10;;;21.50;44.80;;;;;;4987995;28;20209;-51
2024/03/17 05:44:15;;;;;;;0.10;0.10;;;21.50;44.90;;;;;;4988305;28;20701;-53
2024/03/17 05:46:45;;;;;;;0.00;0.00;;;21.50;44.90;;;;;;4988795;28;20198;-53
2024/03/17 05:49:16;;;;;;;0.00;0.00;;;21.50;45.00;;;;;;4987741;28;20240;-49
2024/03/17 05:51:46;;;;;;;0.10;0.10;;;21.50;45.00;;;;;;4988710;28;20227;-48
2024/03/17 05:54:19;;;;;;;0.10;0.10;;;21.50;45.10;;;;;;4987802;28;20774;-51
2024/03/17 05:56:50;;;;;;;0.00;0.00;;;21.50;45.20;;;;;;4987977;28;20205;-53
2024/03/17 05:59:20;;;;;;;0.00;0.00;;;21.50;45.20;;;;;;4988082;28;20579;-49
2024/03/17 06:01:51;;;;;;;0.05;0.05;;;21.50;45.30;;;;;;4987746;28;20212;-49
2024/03/17 06:04:21;;;;;;;0.10;0.10;;;21.50;45.30;;;;;;4987475;28;20233;-54
2024/03/17 06:06:53;;;;;;;0.00;0.00;;;21.50;45.50;;;;;;4987594;28;20253;-46
2024/03/17 06:09:25;;;;;;;0.00;0.00;;;21.50;45.40;;;;;;4987558;28;20193;-47
2024/03/17 06:11:56;;;;;;;0.00;0.00;;;21.50;45.40;;;;;;4988082;28;20210;-52
2024/03/17 06:14:26;;;;;;;0.03;0.03;;;21.40;45.40;;;;;;4987985;28;20232;-51
2024/03/17 06:16:57;;;;;;;0.00;0.00;;;21.40;45.50;;;;;;4987593;28;20197;-50
2024/03/17 06:19:28;;;;;;;0.00;0.00;;;21.40;45.50;;;;;;4988354;28;20197;-51
2024/03/17 06:21:58;;;;;;;0.03;0.03;;;21.40;45.60;;;;;;4988370;28;20208;-49
2024/03/17 06:24:32;;;;;;;0.10;0.10;;;21.40;45.60;;;;;;4987130;28;20237;-52
2024/03/17 06:27:03;;;;;;;0.10;0.10;;;21.40;45.60;;;;;;4988138;28;20213;-47
2024/03/17 06:29:36;;;;;;;0.05;0.05;;;21.40;45.70;;;;;;4987738;28;20201;-46
2024/03/17 06:32:07;;;;;;;0.03;0.03;;;21.40;45.70;;;;;;4988143;28;20685;-46
2024/03/17 06:34:37;;;;;;;0.00;0.00;;;21.40;45.70;;;;;;4988325;28;20209;-48
2024/03/17 06:37:08;;;;;;;0.00;0.00;;;21.40;45.70;;;;;;4988109;28;20209;-52
2024/03/17 06:39:41;;;;;;;0.00;0.00;;;21.40;45.80;;;;;;4989150;28;20209;-45
2024/03/17 06:42:11;;;;;;;0.10;0.10;;;21.40;45.80;;;;;;4990937;28;20567;-51
2024/03/17 06:44:42;;;;;;;0.00;0.00;;;21.30;45.80;;;;;;4991535;28;20236;-51
2024/03/17 06:47:13;;;;;;;0.05;0.05;;;21.40;45.80;;;;;;4991531;28;20206;-49
2024/03/17 06:49:44;;;;;;;0.00;0.00;;;21.30;45.80;;;;;;4991497;28;20194;-50
2024/03/17 06:52:14;;;;;;;0.10;0.10;;;21.30;45.80;;;;;;4991365;28;20304;-48
2024/03/17 06:54:50;;;;;;;0.00;0.00;;;21.30;45.80;;;;;;4991366;28;20577;-51
2024/03/17 06:57:21;;;;;;;0.00;0.00;;;21.30;45.80;;;;;;4990857;28;20685;-49
2024/03/17 06:59:51;;;;;;;0.10;0.10;;;21.30;45.80;;;;;;4991427;28;20248;-50
2024/03/17 07:02:22;;;;;;;0.00;0.00;;;21.30;45.90;;;;;;4990696;28;20205;-55
2024/03/17 07:04:53;;;;;;;0.00;0.00;;;21.30;45.90;;;;;;4990754;28;20284;-49
2024/03/17 07:07:23;;;;;;;0.10;0.10;;;21.30;45.90;;;;;;4991334;28;20217;-50
2024/03/17 07:09:57;;;;;;;0.00;0.00;;;21.30;45.90;;;;;;4990609;28;20201;-51
2024/03/17 07:12:27;;;;;;;0.00;0.00;;;21.30;46.00;;;;;;4990954;28;20255;-53
2024/03/17 07:14:58;;;;;;;0.00;0.00;;;21.30;46.00;;;;;;4990543;28;20566;-50
2024/03/17 07:17:29;;;;;;;0.10;0.10;;;21.30;45.90;;;;;;4991530;28;20565;-55
2024/03/17 07:20:03;;;;;;;0.00;0.00;;;21.20;46.00;;;;;;4991263;28;20661;-47
2024/03/17 07:22:33;;;;;;;0.00;0.00;;;21.20;46.00;;;;;;4990617;28;20587;-51
2024/03/17 07:25:06;;;;;;;0.00;0.00;;;21.30;46.00;;;;;;4990657;28;20233;-49
2024/03/17 07:27:38;;;;;;;0.00;0.00;;;21.30;46.00;;;;;;4991020;28;20337;-48
2024/03/17 07:30:10;;;;;;;0.10;0.10;;;21.30;46.00;;;;;;4992365;28;20197;-48
2024/03/17 07:32:41;;;;;;;0.10;0.10;;;21.20;46.00;;;;;;4994580;28;20237;-47
2024/03/17 07:35:12;;;;;;;0.05;0.05;;;21.20;45.90;;;;;;4994962;28;20556;-49
2024/03/17 07:37:43;;;;;;;0.00;0.00;;;21.20;45.90;;;;;;4994584;28;20209;-52
2024/03/17 07:40:17;;;;;;;0.00;0.00;;;21.20;45.90;;;;;;4994216;28;20201;-49
2024/03/17 07:42:47;;;;;;;0.00;0.00;;;21.20;46.00;;;;;;4994352;28;20764;-48
2024/03/17 07:45:18;;;;;;;0.00;0.00;;;21.20;46.00;;;;;;4994116;28;20221;-46
2024/03/17 07:47:49;;;;;;;0.10;0.10;;;21.20;46.00;;;;;;4993636;28;20204;-50
2024/03/17 07:50:19;;;;;;;0.00;0.00;;;21.20;45.90;;;;;;4994189;28;20205;-50
2024/03/17 07:52:50;;;;;;;0.00;0.00;;;21.20;45.90;;;;;;4993921;28;20276;-49
2024/03/17 07:55:23;;;;;;;0.05;0.05;;;21.20;45.90;;;;;;4993804;28;20597;-51
2024/03/17 07:57:53;;;;;;;0.10;0.10;;;21.10;45.90;;;;;;4994069;28;20209;-48
2024/03/17 08:00:24;;;;;;;0.00;0.00;;;21.10;45.90;;;;;;4988433;28;20210;-48
2024/03/17 08:02:55;;;;;;;0.00;0.00;;;21.10;45.90;;;;;;4989912;28;20236;-50
2024/03/17 08:05:25;;;;;;;0.00;0.00;;;21.10;45.90;;;;;;4990383;28;20235;-48
2024/03/17 08:07:56;;;;;;;0.00;0.00;;;21.10;46.40;;;;;;4989846;28;20205;-47
2024/03/17 08:10:28;;;;;;;0.00;0.00;;;21.10;46.60;;;;;;4990006;28;20208;-46
2024/03/17 08:12:59;;;;;;;0.10;0.10;;;21.10;46.40;;;;;;4990257;28;20221;-47
2024/03/17 08:15:30;;;;;;;0.00;0.00;;;21.10;46.40;;;;;;4990377;28;20658;-47
2024/03/17 08:18:00;;;;;;;0.10;0.10;;;21.10;46.30;;;;;;4989935;28;20197;-48
2024/03/17 08:20:31;;;;;;;0.00;0.00;;;21.10;46.40;;;;;;4990265;28;20208;-48
2024/03/17 08:23:01;;;;;;;0.00;0.00;;;21.10;46.40;;;;;;4988574;28;20222;-49
2024/03/17 08:25:34;;;;;;;0.00;0.00;;;21.10;46.20;;;;;;4989579;28;20705;-47
2024/03/17 08:28:06;;;;;;;0.00;0.00;;;21.10;46.30;;;;;;4989528;28;20209;-47
2024/03/17 08:30:36;;;;;;;0.05;0.05;;;21.10;46.20;;;;;;4989074;28;20649;-48
2024/03/17 08:33:09;;;;;;;0.00;0.00;;;21.10;46.20;;;;;;4989952;28;20225;-46
2024/03/17 08:35:39;;;;;;;0.00;0.00;;;21.10;46.20;;;;;;4989299;28;20197;-51
2024/03/17 08:38:11;;;;;;;0.08;0.08;;;21.10;46.20;;;;;;4989617;28;20209;-48
2024/03/17 08:40:44;;;;;;;0.00;0.00;;;21.10;46.20;;;;;;4989767;28;20200;-47
2024/03/17 08:43:15;;;;;;;0.10;0.10;;;21.00;46.20;;;;;;4989654;28;20284;-46
2024/03/17 08:45:46;;;;;;;0.10;0.10;;;21.00;46.10;;;;;;4990044;28;20237;-45
2024/03/17 08:48:16;;;;;;;0.00;0.00;;;21.00;46.10;;;;;;4989172;28;20720;-48
2024/03/17 08:50:54;;;;;;;0.00;0.00;;;21.00;46.20;;;;;;4989313;28;20212;-48
2024/03/17 08:53:25;;;;;;;0.00;0.00;;;21.00;46.10;;;;;;4988164;28;20213;-48
2024/03/17 08:55:58;;;;;;;0.00;0.00;;;21.00;46.20;;;;;;4988842;28;20609;-46
2024/03/17 08:58:29;;;;;;;0.03;0.03;;;21.00;46.10;;;;;;4988842;28;20202;-46
2024/03/17 09:01:00;;;;;;;0.00;0.00;;;21.00;46.10;;;;;;4989881;28;20213;-47
2024/03/17 09:03:30;;;;;;;0.00;0.00;;;21.00;46.10;;;;;;4988688;28;20229;-50
2024/03/17 09:06:01;;;;;;;0.00;0.00;;;21.00;46.10;;;;;;4989350;28;20229;-47
2024/03/17 09:08:33;;;;;;;0.00;0.00;;;21.00;46.10;;;;;;4989010;28;20201;-46
2024/03/17 09:11:05;;;;;;;0.00;0.00;;;20.90;46.00;;;;;;4988903;28;20575;-48
2024/03/17 09:13:36;;;;;;;0.00;0.00;;;21.00;46.10;;;;;;4988062;28;20567;-48
2024/03/17 09:16:11;;;;;;;0.00;0.00;;;20.90;46.00;;;;;;4988677;28;20209;-49
2024/03/17 09:18:41;;;;;;;0.00;0.00;;;20.90;45.90;;;;;;4989529;28;20291;-48
2024/03/17 09:21:13;;;;;;;0.10;0.10;;;20.90;46.00;;;;;;4989437;28;20697;-51
2024/03/17 09:23:44;;;;;;;0.00;0.00;;;20.90;45.90;;;;;;4988364;28;20217;-48
2024/03/17 09:26:17;;;;;;;0.00;0.00;;;20.90;45.90;;;;;;4988754;28;20770;-47
2024/03/17 09:28:48;;;;;;;0.10;0.10;;;20.90;45.90;;;;;;4988376;28;20285;-48
2024/03/17 09:31:18;;;;;;;0.00;0.00;;;20.80;45.80;;;;;;4989074;28;20212;-48
2024/03/17 09:33:50;;;;;;;0.00;0.00;;;20.80;45.90;;;;;;4987937;28;20222;-50
2024/03/17 09:36:21;;;;;;;0.10;0.10;;;20.80;45.90;;;;;;4988746;28;20205;-49
2024/03/17 09:38:52;;;;;;;0.00;0.00;;;20.80;45.80;;;;;;4988243;28;20586;-47
2024/03/17 09:41:27;;;;;;;0.00;0.00;;;20.80;45.80;;;;;;4988850;28;20204;-49
2024/03/17 09:43:58;;;;;;;0.00;0.00;;;20.70;46.40;;;;;;4988221;28;20228;-47
2024/03/17 09:46:30;;;;;;;0.00;0.00;;;20.70;45.80;;;;;;4988402;28;20240;-46
2024/03/17 09:49:00;;;;;;;0.10;0.10;;;20.70;45.80;;;;;;4999315;28;20201;-48
2024/03/17 09:51:31;;;;;;;0.10;0.10;;;20.70;45.80;;;;;;5008276;28;20676;-48
2024/03/17 09:54:03;;;;;;;0.10;0.10;;;20.70;45.80;;;;;;4998244;28;20217;-48
2024/03/17 09:56:36;;;;;;;0.00;0.00;;;20.70;45.80;;;;;;4987624;28;20284;-45
2024/03/17 09:59:07;;;;;;;0.00;0.00;;;20.70;45.80;;;;;;4988595;28;20213;-49
2024/03/17 10:01:37;;;;;;;0.00;0.00;;;20.70;45.80;;;;;;4987748;28;20208;-47
2024/03/17 10:04:10;;;;;;;0.00;0.00;;;20.60;45.70;;;;;;4988807;28;20232;-47
2024/03/17 10:06:50;;;;;;;0.00;0.00;;;20.60;45.70;;;;;;4987513;28;20207;-45
2024/03/17 10:09:23;;;;;;;0.00;0.00;;;20.60;45.70;;;;;;4988381;28;20230;-48
2024/03/17 10:11:55;;;;;;;0.00;0.00;;;20.50;45.70;;;;;;4988731;28;20243;-49
2024/03/17 10:14:26;;;;;;;0.00;0.00;;;20.60;45.70;;;;;;4993102;28;20220;-46
2024/03/17 10:16:57;;;;;;;0.00;0.00;;;20.50;45.70;;;;;;4996284;28;20599;-48
2024/03/17 10:19:28;;;;;;;0.00;0.00;;;20.50;45.70;;;;;;4995795;28;20201;-45
2024/03/17 10:22:03;;;;;;;0.00;0.00;;;20.50;45.70;;;;;;4996128;28;20285;-48
2024/03/17 10:24:34;;;;;;;0.00;0.00;;;20.50;45.70;;;;;;4995352;28;20232;-47
2024/03/17 10:27:07;;;;;;;0.00;0.00;;;20.50;45.70;;;;;;4976486;28;20198;-47
2024/03/17 10:29:38;;;;;;;0.00;0.00;;;20.50;45.70;;;;;;4976456;28;20209;-47
2024/03/17 10:32:17;;;;;;;0.03;0.03;;;20.50;45.70;;;;;;4975807;28;20285;-45
2024/03/17 10:34:49;;;;;;;0.00;0.00;;;20.40;45.70;;;;;;4975892;28;20669;-48
2024/03/17 10:37:22;;;;;;;0.00;0.00;;;20.40;45.60;;;;;;4976219;28;20210;-48
2024/03/17 10:39:56;;;;;;;0.00;0.00;;;20.40;45.60;;;;;;4976401;28;20208;-46
2024/03/17 10:42:31;;;;;;;0.00;0.00;;;20.40;45.60;;;;;;4976403;28;20285;-46
2024/03/17 10:45:02;;;;;;;0.10;0.10;;;20.40;45.60;;;;;;4976367;28;20280;-46
2024/03/17 10:47:32;;;;;;;0.05;0.05;;;20.40;45.60;;;;;;4976292;28;20213;-48
2024/03/17 10:50:05;;;;;;;0.00;0.00;;;20.40;46.30;;;;;;4976136;28;20206;-46
2024/03/17 10:52:40;;;;;;;0.00;0.00;;;20.30;45.60;;;;;;4976406;28;20486;-46
2024/03/17 10:55:12;;;;;;;0.13;0.13;;;20.30;45.60;;;;;;4985938;28;20201;-48
2024/03/17 10:57:49;;;;;;;0.03;0.03;;;20.30;45.60;;;;;;4995005;28;20683;-44
2024/03/17 11:00:21;;;;;;;0.00;0.00;;;20.30;45.60;;;;;;4995263;28;20293;-45
2024/03/17 11:02:55;;;;;;;0.10;0.10;;;20.30;45.60;;;;;;4994923;28;20333;-45
2024/03/17 11:05:29;;;;;;;0.00;0.00;;;20.20;45.60;;;;;;4994783;28;20732;-47
2024/03/17 11:08:01;;;;;;;0.10;0.10;;;20.20;45.60;;;;;;4994892;28;20569;-46
2024/03/17 11:10:32;;;;;;;0.10;0.10;;;20.20;45.60;;;;;;4994292;28;20194;-45
2024/03/17 11:13:05;;;;;;;0.03;0.03;;;20.20;45.60;;;;;;4994325;28;20225;-46
2024/03/17 11:15:41;;;;;;;0.00;0.00;;;20.20;45.70;;;;;;4994321;28;20194;-47
2024/03/17 11:18:38;;;;;;;0.00;0.00;;;20.20;45.70;;;;;;4994058;28;20263;-47
2024/03/17 11:21:20;;;;;;;0.10;0.10;;;20.20;45.70;;;;;;4993567;28;20224;-46
2024/03/17 11:24:02;;;;;;;0.10;0.10;;;20.20;45.70;;;;;;4993055;28;20641;-46
2024/03/17 11:26:35;;;;;;;0.00;0.00;;;20.20;45.70;;;;;;4992939;28;20348;-45
2024/03/17 11:29:08;;;;;;;0.00;0.00;;;20.10;45.60;;;;;;4992660;28;20564;-47
2024/03/17 11:31:42;;;;;;;0.00;0.00;;;20.10;45.60;;;;;;4991669;28;20645;-44
2024/03/17 11:34:36;;;;;;;0.10;0.10;;;20.10;45.60;;;;;;4993590;28;20294;-50
2024/03/17 11:37:10;;;;;;;0.00;0.00;;;20.10;45.60;;;;;;4993497;28;20208;-46
2024/03/17 11:39:59;;;;;;;0.00;0.00;;;20.10;45.60;;;;;;5007851;23;20202;-46
2024/03/17 11:42:30;;;;;;;0.00;0.00;;;20.10;45.60;;;;;;5040443;28;20213;-47
2024/03/17 11:45:03;;;;;;;0.00;0.00;;;20.10;45.60;;;;;;5022126;28;20217;-47
2024/03/17 11:47:43;;;;;;;0.00;0.00;;;20.00;45.60;;;;;;5024245;28;20210;-47
2024/03/17 11:50:14;;;;;;;0.10;0.10;;;20.00;45.60;;;;;;5024112;28;20200;-47
2024/03/17 11:52:45;;;;;;;0.00;0.00;;;20.00;45.60;;;;;;5022804;28;20282;-47
2024/03/17 11:55:20;;;;;;;0.00;0.00;;;20.00;45.60;;;;;;5021912;28;20185;-47
2024/03/17 11:57:59;;;;;;;0.00;0.00;;;20.00;45.60;;;;;;5022825;28;20593;-46
2024/03/17 12:00:30;;;;;;;0.10;0.10;;;20.00;45.70;;;;;;5023042;28;20279;-48
2024/03/17 12:03:03;;;;;;;0.00;0.00;;;20.00;45.60;;;;;;5021929;28;20213;-46
2024/03/17 12:05:32;;;;;;;0.10;0.10;;;19.90;45.60;;;;;;5021444;28;20224;-47
2024/03/17 12:08:03;;;;;;;0.00;0.00;;;19.90;45.60;;;;;;5023420;28;20258;-47
2024/03/17 12:10:32;;;;;;;0.00;0.00;;;19.90;45.60;;;;;;5023724;28;20570;-49
2024/03/17 12:13:03;;;;;;;0.00;0.00;;;19.90;45.60;;;;;;5022010;28;20209;-48
2024/03/17 12:15:34;;;;;;;0.00;0.00;;;19.90;45.60;;;;;;5021954;28;20201;-48
2024/03/17 12:18:05;;;;;;;0.05;0.05;;;19.90;45.60;;;;;;5021370;28;20193;-47
2024/03/17 12:20:34;;;;;;;0.05;0.05;;;19.90;45.60;;;;;;5020961;28;20267;-47
2024/03/17 12:23:05;;;;;;;0.10;0.10;;;19.90;45.60;;;;;;5022451;28;20208;-46
2024/03/17 12:25:35;;;;;;;0.00;0.00;;;19.90;45.60;;;;;;5023799;28;20216;-47
2024/03/17 12:28:05;;;;;;;0.10;0.10;;;19.90;45.60;;;;;;5032879;28;20628;-47
2024/03/17 12:30:37;;;;;;;0.10;0.10;;;19.90;45.60;;;;;;5033209;28;20203;-50
2024/03/17 12:33:12;;;;;;;0.00;0.00;;;19.80;45.60;;;;;;5032897;28;20247;-50
2024/03/17 12:35:42;;;;;;;0.00;0.00;;;19.80;45.60;;;;;;5032240;28;20682;-48
2024/03/17 12:38:24;;;;;;;0.00;0.00;;;19.80;45.60;;;;;;5032056;28;20224;-48
2024/03/17 12:40:53;;;;;;;0.00;0.00;;;19.80;45.60;;;;;;5045047;22;20230;-58
2024/03/17 12:43:26;;;;;;;0.10;0.10;;;19.80;45.60;;;;;;5032915;28;20314;-61
2024/03/17 12:46:00;;;;;;;0.03;0.03;;;19.80;45.60;;;;;;5032532;28;20228;-60
2024/03/17 12:48:31;;;;;;;0.03;0.03;;;19.70;45.50;;;;;;5032071;28;20200;-58
2024/03/17 12:51:00;;;;;;;0.00;0.00;;;19.80;45.60;;;;;;5032356;28;20203;-53
2024/03/17 12:53:31;;;;;;;0.00;0.00;;;19.70;45.50;;;;;;5032275;28;20215;-54
2024/03/17 13:01:36;;;;;;;0.00;0.00;;;19.70;45.50;;;;;;5030526;28;20230;-56
2024/03/17 13:04:10;;;;;;;0.10;0.10;;;19.70;45.50;;;;;;5031074;28;20212;-54
2024/03/17 13:06:40;;;;;;;0.00;0.00;;;19.70;45.50;;;;;;5031581;28;20216;-49
2024/03/17 13:09:11;;;;;;;0.00;0.00;;;19.60;45.40;;;;;;5031384;28;20197;-50
2024/03/17 13:11:42;;;;;;;0.08;0.08;;;19.70;45.50;;;;;;5028711;28;20282;-50
2024/03/17 13:14:17;;;;;;;0.00;0.00;;;19.60;45.50;;;;;;5029674;28;20223;-51
2024/03/17 13:16:49;;;;;;;0.00;0.00;;;19.60;45.50;;;;;;5029921;28;20184;-52